createdAt,value
2018-06-10T00:02:21.008Z,96.90
2018-06-10T00:04:49.524Z,97.60
2018-06-10T00:07:18.053Z,98.40
2018-06-10T00:09:46.556Z,98.60
2018-06-10T00:12:15.059Z,98.30
2018-06-10T00:14:43.558Z,98.30
2018-06-10T00:17:12.071Z,98.30
2018-06-10T00:22:08.765Z,98.30
2018-06-10T00:24:37.244Z,98.10
2018-06-10T00:27:05.749Z,98.00
2018-06-10T00:29:34.290Z,98.10
2018-06-10T00:34:30.929Z,98.30
2018-06-10T00:36:59.485Z,98.00
2018-06-10T00:39:28.013Z,97.70
2018-06-10T00:41:56.494Z,97.50
2018-06-10T00:44:24.993Z,97.40
2018-06-10T00:46:53.479Z,97.90
2018-06-10T00:49:21.977Z,97.80
2018-06-10T00:59:16.483Z,98.80
2018-06-10T01:01:44.984Z,98.90
2018-06-10T01:04:13.513Z,98.50
2018-06-10T01:11:39.367Z,98.50
2018-06-10T01:16:42.681Z,98.60
2018-06-10T01:19:11.196Z,98.20
2018-06-10T01:21:39.689Z,98.10
2018-06-10T01:24:08.195Z,97.40
2018-06-10T01:26:42.076Z,97.30
2018-06-10T01:29:10.544Z,97.30
2018-06-10T01:31:39.066Z,96.80
2018-06-10T01:34:07.600Z,96.70
2018-06-10T01:36:36.097Z,97.20
2018-06-10T01:39:06.360Z,97.60
2018-06-10T01:41:35.168Z,97.80
2018-06-10T01:44:03.661Z,97.50
2018-06-10T01:46:32.185Z,97.50
2018-06-10T01:49:00.774Z,97.90
2018-06-10T01:53:57.440Z,97.30
2018-06-10T01:56:25.910Z,97.40
2018-06-10T01:58:54.391Z,97.80
2018-06-10T02:01:22.894Z,98.00
2018-06-10T02:06:19.536Z,97.90
2018-06-10T02:08:48.036Z,97.80
2018-06-10T02:11:16.515Z,97.90
2018-06-10T02:13:45.020Z,98.00
2018-06-10T02:16:13.520Z,98.10
2018-06-10T02:18:42.032Z,97.80
2018-06-10T02:21:10.515Z,97.60
2018-06-10T02:23:39.023Z,97.10
2018-06-10T02:26:07.550Z,97.60
2018-06-10T02:31:04.181Z,97.30
2018-06-10T02:33:32.725Z,97.60
2018-06-10T02:36:01.203Z,98.00
2018-06-10T02:38:29.699Z,98.30
2018-06-10T02:40:58.208Z,99.40
2018-06-10T02:43:26.707Z,99.20
2018-06-10T02:45:55.195Z,98.60
2018-06-10T02:48:23.697Z,98.40
2018-06-10T02:50:52.198Z,98.10
2018-06-10T02:58:17.096Z,98.00
2018-06-10T03:00:45.593Z,98.20
2018-06-10T03:03:14.101Z,97.70
2018-06-10T03:05:42.583Z,97.00
2018-06-10T03:08:11.090Z,96.50
2018-06-10T03:10:39.574Z,96.40
2018-06-10T03:15:36.176Z,96.60
2018-06-10T03:18:04.727Z,96.70
2018-06-10T03:20:33.246Z,96.90
2018-06-10T03:23:01.745Z,97.00
2018-06-10T03:25:30.237Z,97.50
2018-06-10T03:27:58.710Z,98.40
2018-06-10T03:30:27.210Z,97.40
2018-06-10T03:32:55.718Z,97.40
2018-06-10T03:35:24.416Z,97.40
2018-06-10T03:37:52.909Z,97.60
2018-06-10T03:42:49.550Z,98.10
2018-06-10T03:45:18.051Z,98.10
2018-06-10T03:47:46.532Z,98.00
2018-06-10T03:50:15.052Z,97.60
2018-06-10T03:52:43.538Z,97.70
2018-06-10T03:55:14.865Z,98.00
2018-06-10T03:57:43.376Z,98.10
2018-06-10T04:00:11.919Z,98.00
2018-06-10T04:02:40.409Z,98.10
2018-06-10T04:05:08.939Z,97.80
2018-06-10T04:07:37.412Z,97.80
2018-06-10T04:10:05.909Z,98.10
2018-06-10T04:12:34.421Z,98.40
2018-06-10T04:15:02.917Z,98.80
2018-06-10T04:17:31.424Z,99.00
2018-06-10T04:19:59.933Z,99.30
2018-06-10T04:24:56.557Z,99.50
2018-06-10T04:27:25.028Z,99.00
2018-06-10T04:29:53.489Z,98.90
2018-06-10T04:32:22.034Z,98.80
2018-06-10T04:34:50.520Z,98.80
2018-06-10T04:37:19.012Z,98.70
2018-06-10T04:42:15.675Z,98.30
2018-06-10T04:44:44.138Z,97.80
2018-06-10T04:47:12.684Z,98.20
2018-06-10T04:49:41.143Z,98.10
2018-06-10T04:54:37.775Z,97.20
2018-06-10T04:57:06.248Z,97.20
2018-06-10T04:59:34.723Z,97.20
2018-06-10T05:02:03.627Z,97.40
2018-06-10T05:04:32.107Z,97.80
2018-06-10T05:07:00.592Z,97.90
2018-06-10T05:09:29.072Z,98.10
2018-06-10T05:11:57.568Z,98.90
2018-06-10T05:14:26.036Z,98.90
2018-06-10T05:16:54.551Z,98.70
2018-06-10T05:19:23.044Z,98.40
2018-06-10T05:21:51.519Z,98.40
2018-06-10T05:24:19.995Z,98.50
2018-06-10T05:26:48.468Z,98.60
2018-06-10T05:29:16.966Z,98.90
2018-06-10T05:31:45.503Z,98.90
2018-06-10T05:36:42.205Z,98.90
2018-06-10T05:39:10.687Z,99.00
2018-06-10T05:41:39.169Z,99.40
2018-06-10T05:44:07.667Z,99.90
2018-06-10T05:46:36.159Z,99.90
2018-06-10T05:49:04.689Z,99.90
2018-06-10T05:54:01.339Z,97.60
2018-06-10T05:56:29.819Z,97.20
2018-06-10T05:58:58.300Z,96.90
2018-06-10T06:01:26.806Z,96.00
2018-06-10T06:06:23.501Z,94.40
2018-06-10T06:08:51.993Z,94.20
2018-06-10T06:11:20.476Z,94.60
2018-06-10T06:13:48.992Z,94.40
2018-06-10T06:16:18.390Z,94.60
2018-06-10T06:18:46.910Z,93.30
2018-06-10T06:21:15.427Z,92.70
2018-06-10T06:23:43.959Z,92.70
2018-06-10T06:26:12.474Z,93.30
2018-06-10T06:28:40.973Z,91.70
2018-06-10T06:31:09.479Z,93.10
2018-06-10T06:33:37.954Z,91.60
2018-06-10T06:38:34.652Z,92.40
2018-06-10T06:41:03.192Z,91.40
2018-06-10T06:45:59.899Z,90.70
2018-06-10T06:48:28.376Z,88.90
2018-06-10T06:50:56.873Z,86.60
2018-06-10T06:53:25.371Z,88.20
2018-06-10T06:55:53.892Z,84.80
2018-06-10T06:58:22.409Z,86.70
2018-06-10T07:00:50.884Z,87.20
2018-06-10T07:03:19.418Z,88.40
2018-06-10T07:05:47.895Z,88.10
2018-06-10T07:08:16.398Z,86.40
2018-06-10T07:10:44.879Z,85.20
2018-06-10T07:13:13.378Z,85.00
2018-06-10T07:15:41.879Z,80.60
2018-06-10T07:18:10.417Z,79.80
2018-06-10T07:20:38.908Z,80.70
2018-06-10T07:23:07.455Z,79.90
2018-06-10T07:28:04.155Z,79.00
2018-06-10T07:30:32.677Z,79.70
2018-06-10T07:33:01.183Z,80.30
2018-06-10T07:37:57.860Z,75.00
2018-06-10T07:40:26.444Z,77.90
2018-06-10T07:42:54.913Z,74.10
2018-06-10T07:45:23.401Z,75.90
2018-06-10T07:47:51.951Z,73.10
2018-06-10T07:50:20.501Z,72.80
2018-06-10T07:52:49.011Z,72.00
2018-06-10T07:55:17.528Z,70.70
2018-06-10T07:57:46.034Z,70.00
2018-06-10T08:00:14.558Z,65.60
2018-06-10T08:02:43.063Z,65.60
2018-06-10T08:05:11.592Z,69.50
2018-06-10T08:07:40.111Z,69.30
2018-06-10T08:10:08.684Z,68.10
2018-06-10T08:15:05.378Z,64.30
2018-06-10T08:17:33.873Z,67.00
2018-06-10T08:20:02.408Z,64.90
2018-06-10T08:22:30.896Z,67.10
2018-06-10T08:27:27.580Z,65.30
2018-06-10T08:29:56.092Z,62.30
2018-06-10T08:32:24.644Z,66.00
2018-06-10T08:34:53.152Z,64.20
2018-06-10T08:37:21.736Z,63.20
2018-06-10T08:39:50.293Z,61.30
2018-06-10T08:42:18.829Z,61.10
2018-06-10T08:44:47.427Z,60.20
2018-06-10T08:47:16.003Z,60.90
2018-06-10T08:49:44.502Z,63.20
2018-06-10T08:52:13.030Z,61.10
2018-06-10T08:54:43.557Z,65.20
2018-06-10T08:57:12.127Z,64.00
2018-06-10T08:59:40.736Z,66.30
2018-06-10T09:04:37.475Z,59.30
2018-06-10T09:07:06.121Z,61.60
2018-06-10T09:09:34.642Z,59.80
2018-06-10T09:12:03.304Z,56.70
2018-06-10T09:14:31.874Z,55.50
2018-06-10T09:17:00.384Z,56.70
2018-06-10T09:19:28.976Z,57.30
2018-06-10T09:21:57.570Z,58.90
2018-06-10T09:24:26.080Z,57.80
2018-06-10T09:26:54.608Z,58.50
2018-06-10T09:29:23.226Z,57.40
2018-06-10T09:31:51.767Z,58.00
2018-06-10T09:34:20.290Z,56.50
2018-06-10T09:36:48.850Z,57.70
2018-06-10T09:39:17.391Z,57.50
2018-06-10T09:41:45.977Z,55.70
2018-06-10T09:44:14.534Z,56.00
2018-06-10T09:46:43.086Z,56.80
2018-06-10T09:49:11.604Z,57.30
2018-06-10T09:51:40.176Z,57.80
2018-06-10T09:54:08.699Z,62.20
2018-06-10T09:56:37.209Z,59.70
2018-06-10T09:59:05.789Z,62.30
2018-06-10T10:01:34.309Z,59.20
2018-06-10T10:06:31.029Z,59.20
2018-06-10T10:08:59.552Z,64.50
2018-06-10T10:11:28.111Z,60.30
2018-06-10T10:13:56.628Z,58.80
2018-06-10T10:16:25.173Z,59.40
2018-06-10T10:18:53.770Z,58.80
2018-06-10T10:21:22.292Z,58.80
2018-06-10T10:23:50.808Z,57.50
2018-06-10T10:26:19.721Z,57.20
2018-06-10T10:28:48.274Z,58.30
2018-06-10T10:31:16.848Z,57.20
2018-06-10T10:33:45.399Z,55.60
2018-06-10T10:36:13.901Z,54.90
2018-06-10T10:38:42.426Z,54.10
2018-06-10T10:41:10.986Z,52.20
2018-06-10T10:43:39.556Z,53.90
2018-06-10T10:46:08.112Z,52.20
2018-06-10T10:48:36.655Z,55.70
2018-06-10T10:51:05.221Z,56.00
2018-06-10T10:53:33.751Z,57.60
2018-06-10T10:58:30.576Z,55.80
2018-06-10T11:01:02.191Z,57.30
2018-06-10T11:03:30.731Z,57.70
2018-06-10T11:05:59.288Z,56.80
2018-06-10T11:08:27.786Z,58.50
2018-06-10T11:10:56.354Z,58.60
2018-06-10T11:13:24.920Z,60.30
2018-06-10T11:15:53.487Z,59.30
2018-06-10T11:18:22.038Z,56.20
2018-06-10T11:20:50.627Z,56.30
2018-06-10T11:23:19.150Z,55.00
2018-06-10T11:25:47.688Z,54.50
2018-06-10T11:28:16.236Z,57.20
2018-06-10T11:30:44.748Z,55.10
2018-06-10T11:33:13.272Z,54.70
2018-06-10T11:35:41.840Z,55.90
2018-06-10T11:38:10.397Z,54.40
2018-06-10T11:40:38.931Z,55.40
2018-06-10T11:43:07.702Z,57.00
2018-06-10T11:45:36.253Z,57.50
2018-06-10T11:50:33.056Z,50.70
2018-06-10T11:53:01.608Z,54.20
2018-06-10T11:55:30.167Z,51.30
2018-06-10T11:57:58.725Z,51.60
2018-06-10T12:00:27.266Z,57.50
2018-06-10T12:02:55.810Z,51.10
2018-06-10T12:05:24.332Z,52.70
2018-06-10T12:07:52.893Z,51.50
2018-06-10T12:10:21.454Z,49.60
2018-06-10T12:12:49.973Z,50.30
2018-06-10T12:15:18.523Z,51.90
2018-06-10T12:17:47.146Z,52.10
2018-06-10T12:20:15.691Z,48.90
2018-06-10T12:22:44.305Z,50.00
2018-06-10T12:25:12.811Z,48.20
2018-06-10T12:27:41.367Z,48.00
2018-06-10T12:30:09.942Z,48.10
2018-06-10T12:32:38.473Z,45.20
2018-06-10T12:35:07.014Z,47.20
2018-06-10T12:37:35.526Z,47.10
2018-06-10T12:40:04.162Z,44.20
2018-06-10T12:42:32.907Z,45.70
2018-06-10T12:45:01.489Z,45.20
2018-06-10T12:47:30.057Z,44.70
2018-06-10T12:49:58.584Z,46.30
2018-06-10T12:52:27.160Z,46.70
2018-06-10T12:54:55.752Z,45.30
2018-06-10T12:57:24.260Z,46.40
2018-06-10T12:59:52.794Z,44.00
2018-06-10T13:02:21.380Z,43.10
2018-06-10T13:04:49.890Z,44.70
2018-06-10T13:07:18.398Z,45.20
2018-06-10T13:09:46.934Z,43.80
2018-06-10T13:12:15.498Z,45.50
2018-06-10T13:14:44.020Z,43.90
2018-06-10T13:17:12.548Z,44.80
2018-06-10T13:24:37.573Z,45.80
2018-06-10T13:27:06.184Z,46.80
2018-06-10T13:29:34.721Z,47.30
2018-06-10T13:32:03.339Z,47.20
2018-06-10T13:34:31.855Z,47.60
2018-06-10T13:37:00.397Z,48.60
2018-06-10T13:39:28.904Z,49.80
2018-06-10T13:41:57.456Z,49.70
2018-06-10T13:44:26.089Z,50.10
2018-06-10T13:46:54.647Z,47.50
2018-06-10T13:49:23.152Z,48.00
2018-06-10T13:51:51.723Z,49.80
2018-06-10T13:54:20.269Z,48.50
2018-06-10T13:56:48.820Z,49.50
2018-06-10T13:59:17.446Z,48.80
2018-06-10T14:01:45.948Z,48.70
2018-06-10T14:04:14.517Z,50.00
2018-06-10T14:06:43.041Z,49.00
2018-06-10T14:09:11.580Z,50.10
2018-06-10T14:11:40.122Z,50.60
2018-06-10T14:14:08.674Z,49.90
2018-06-10T14:16:37.253Z,50.10
2018-06-10T14:19:05.822Z,52.90
2018-06-10T14:21:34.369Z,50.00
2018-06-10T14:24:02.921Z,50.20
2018-06-10T14:26:31.479Z,50.50
2018-06-10T14:31:28.202Z,52.20
2018-06-10T14:33:56.734Z,51.20
2018-06-10T14:38:53.486Z,48.80
2018-06-10T14:41:22.063Z,50.80
2018-06-10T14:43:50.652Z,49.10
2018-06-10T14:46:19.213Z,49.70
2018-06-10T14:48:47.755Z,47.00
2018-06-10T14:53:44.550Z,47.60
2018-06-10T14:56:13.062Z,44.80
2018-06-10T14:58:41.589Z,47.80
2018-06-10T15:01:10.131Z,42.60
2018-06-10T15:03:38.687Z,43.90
2018-06-10T15:06:07.274Z,41.70
2018-06-10T15:08:35.765Z,40.20
2018-06-10T15:11:04.367Z,42.40
2018-06-10T15:13:32.941Z,36.60
2018-06-10T15:16:01.433Z,38.90
2018-06-10T15:18:29.992Z,39.50
2018-06-10T15:20:58.587Z,38.00
2018-06-10T15:23:27.137Z,38.30
2018-06-10T15:25:55.690Z,38.60
2018-06-10T15:28:24.181Z,37.90
2018-06-10T15:30:52.719Z,36.50
2018-06-10T15:38:17.623Z,38.20
2018-06-10T15:40:46.209Z,37.50
2018-06-10T15:43:14.770Z,37.50
2018-06-10T15:45:43.295Z,38.00
2018-06-10T15:48:11.825Z,37.80
2018-06-10T15:50:40.372Z,39.60
2018-06-10T15:53:08.930Z,38.10
2018-06-10T15:55:37.474Z,37.40
2018-06-10T15:58:05.989Z,38.60
2018-06-10T16:00:34.536Z,38.30
2018-06-10T16:03:03.118Z,36.60
2018-06-10T16:05:31.630Z,37.00
2018-06-10T16:08:00.194Z,37.80
2018-06-10T16:10:28.753Z,38.60
2018-06-10T16:12:57.338Z,40.20
2018-06-10T16:15:25.943Z,39.90
2018-06-10T16:17:54.488Z,42.30
2018-06-10T16:20:23.034Z,43.80
2018-06-10T16:22:51.595Z,45.10
2018-06-10T16:25:20.145Z,47.20
2018-06-10T16:27:48.670Z,48.00
2018-06-10T16:30:17.236Z,48.20
2018-06-10T16:32:45.825Z,48.10
2018-06-10T16:35:14.400Z,48.40
2018-06-10T16:37:42.988Z,49.20
2018-06-10T16:40:11.574Z,49.60
2018-06-10T16:42:40.089Z,49.90
2018-06-10T16:45:08.658Z,49.70
2018-06-10T16:47:37.207Z,49.60
2018-06-10T16:50:05.777Z,49.80
2018-06-10T16:52:34.323Z,52.70
2018-06-10T16:55:02.856Z,51.30
2018-06-10T16:57:31.581Z,51.70
2018-06-10T17:00:00.157Z,51.60
2018-06-10T17:02:28.736Z,52.30
2018-06-10T17:04:57.280Z,53.20
2018-06-10T17:07:25.828Z,54.70
2018-06-10T17:09:54.370Z,55.50
2018-06-10T17:12:22.880Z,54.60
2018-06-10T17:14:51.371Z,54.60
2018-06-10T17:17:20.048Z,55.00
2018-06-10T17:19:48.568Z,55.40
2018-06-10T17:22:17.133Z,56.10
2018-06-10T17:24:45.668Z,54.50
2018-06-10T17:27:14.257Z,54.00
2018-06-10T17:29:42.804Z,54.70
2018-06-10T17:32:11.332Z,56.00
2018-06-10T17:34:39.929Z,55.50
2018-06-10T17:37:08.420Z,55.90
2018-06-10T17:39:36.926Z,53.30
2018-06-10T17:42:05.489Z,55.50
2018-06-10T17:44:34.031Z,55.00
2018-06-10T17:47:02.555Z,56.70
2018-06-10T17:49:31.075Z,56.00
2018-06-10T17:51:59.620Z,56.40
2018-06-10T17:54:28.187Z,57.90
2018-06-10T17:56:56.710Z,58.70
2018-06-10T17:59:25.228Z,58.60
2018-06-10T18:01:53.774Z,59.60
2018-06-10T18:04:22.327Z,60.20
2018-06-10T18:06:50.965Z,60.40
2018-06-10T18:09:19.517Z,61.80
2018-06-10T18:11:48.031Z,62.80
2018-06-10T18:14:16.565Z,64.00
2018-06-10T18:19:13.463Z,64.40
2018-06-10T18:21:41.985Z,65.00
2018-06-10T18:24:10.526Z,64.70
2018-06-10T18:26:39.108Z,65.80
2018-06-10T18:29:07.636Z,65.40
2018-06-10T18:31:36.166Z,65.50
2018-06-10T18:34:04.808Z,65.00
2018-06-10T18:36:33.434Z,64.20
2018-06-10T18:39:01.985Z,64.20
2018-06-10T18:41:30.496Z,65.00
2018-06-10T18:43:59.064Z,65.70
2018-06-10T18:46:27.606Z,67.00
2018-06-10T18:48:56.150Z,67.50
2018-06-10T18:51:24.671Z,68.00
2018-06-10T18:56:21.461Z,67.60
2018-06-10T18:58:50.060Z,66.90
2018-06-10T19:01:18.637Z,66.90
2018-06-10T19:03:47.212Z,67.70
2018-06-10T19:06:15.749Z,66.80
2018-06-10T19:08:44.262Z,68.90
2018-06-10T19:11:13.107Z,69.10
2018-06-10T19:13:41.837Z,67.60
2018-06-10T19:18:38.627Z,70.10
2018-06-10T19:21:07.170Z,70.30
2018-06-10T19:23:35.761Z,69.40
2018-06-10T19:26:04.330Z,70.70
2018-06-10T19:28:32.908Z,73.00
2018-06-10T19:31:01.608Z,74.40
2018-06-10T19:33:30.240Z,76.90
2018-06-10T19:35:58.839Z,78.60
2018-06-10T19:38:27.399Z,81.40
2018-06-10T19:40:55.944Z,83.10
2018-06-10T19:43:24.499Z,84.30
2018-06-10T19:48:21.225Z,85.20
2018-06-10T19:50:49.764Z,83.90
2018-06-10T19:53:18.292Z,82.80
2018-06-10T19:55:46.902Z,82.40
2018-06-10T19:58:15.448Z,81.40
2018-06-10T20:00:44.011Z,80.50
2018-06-10T20:03:12.542Z,78.80
2018-06-10T20:05:41.120Z,78.00
2018-06-10T20:08:09.648Z,78.90
2018-06-10T20:13:06.490Z,84.70
2018-06-10T20:15:35.126Z,86.00
2018-06-10T20:18:03.737Z,86.80
2018-06-10T20:20:32.268Z,87.60
2018-06-10T20:23:00.834Z,87.80
2018-06-10T20:25:29.360Z,89.10
2018-06-10T20:30:26.134Z,88.90
2018-06-10T20:32:54.651Z,89.00
2018-06-10T20:35:23.190Z,88.80
2018-06-10T20:37:51.734Z,87.70
2018-06-10T20:40:20.240Z,86.80
2018-06-10T20:42:48.744Z,85.30
2018-06-10T20:45:17.264Z,84.90
2018-06-10T20:47:45.795Z,85.10
2018-06-10T20:50:14.331Z,84.80
2018-06-10T20:52:42.905Z,84.50
2018-06-10T20:55:11.429Z,84.00
2018-06-10T20:57:39.933Z,84.70
2018-06-10T21:00:08.475Z,85.00
2018-06-10T21:02:37.038Z,85.50
2018-06-10T21:05:05.571Z,86.60
2018-06-10T21:07:34.127Z,87.90
2018-06-10T21:12:30.811Z,89.60
2018-06-10T21:14:59.505Z,89.90
2018-06-10T21:17:28.065Z,90.50
2018-06-10T21:19:56.663Z,90.50
2018-06-10T21:22:25.220Z,90.50
2018-06-10T21:24:53.784Z,90.20
2018-06-10T21:27:22.314Z,90.20
2018-06-10T21:29:50.851Z,89.60
2018-06-10T21:32:19.420Z,89.60
2018-06-10T21:34:47.914Z,90.00
2018-06-10T21:37:16.448Z,90.30
2018-06-10T21:39:44.968Z,87.70
2018-06-10T21:42:13.601Z,88.60
2018-06-10T21:44:42.124Z,87.80
2018-06-10T21:47:10.735Z,87.20
2018-06-10T21:49:39.272Z,87.00
2018-06-10T21:52:07.860Z,87.10
2018-06-10T21:54:36.369Z,88.40
2018-06-10T21:59:33.130Z,89.90
2018-06-10T22:02:01.719Z,90.10
2018-06-10T22:04:30.324Z,89.80
2018-06-10T22:06:58.818Z,89.70
2018-06-10T22:09:27.332Z,89.20
2018-06-10T22:11:55.825Z,88.80
2018-06-10T22:14:24.398Z,88.60
2018-06-10T22:16:52.935Z,89.50
2018-06-10T22:19:21.420Z,89.50
2018-06-10T22:21:49.932Z,89.60
2018-06-10T22:24:18.452Z,90.20
2018-06-10T22:26:46.974Z,90.00
2018-06-10T22:29:15.516Z,90.20
2018-06-10T22:31:44.014Z,90.40
2018-06-10T22:34:12.549Z,88.80
2018-06-10T22:36:41.047Z,88.20
2018-06-10T22:39:09.595Z,88.50
2018-06-10T22:41:38.206Z,88.10
2018-06-10T22:44:06.812Z,88.90
2018-06-10T22:46:35.331Z,89.50
2018-06-10T22:49:03.888Z,88.10
2018-06-10T22:51:32.427Z,87.90
2018-06-10T22:54:11.957Z,86.70
2018-06-10T22:56:40.500Z,86.70
2018-06-10T22:59:09.007Z,87.50
2018-06-10T23:01:37.608Z,87.70
2018-06-10T23:04:06.184Z,87.20
2018-06-10T23:06:34.734Z,88.30
2018-06-10T23:11:31.795Z,88.50
2018-06-10T23:14:00.297Z,88.10
2018-06-10T23:18:57.060Z,89.10
2018-06-10T23:26:21.940Z,90.00
2018-06-10T23:28:50.483Z,90.20
2018-06-10T23:31:19.028Z,90.40
2018-06-10T23:33:47.580Z,90.50
2018-06-10T23:36:16.757Z,90.90
2018-06-10T23:38:45.274Z,90.90
2018-06-10T23:41:13.789Z,90.90
2018-06-10T23:43:42.346Z,90.90
2018-06-10T23:46:10.857Z,90.80
2018-06-10T23:48:39.388Z,90.70
2018-06-10T23:51:07.960Z,90.40
2018-06-10T23:53:36.460Z,90.40
2018-06-10T23:56:05.012Z,90.10
2018-06-10T23:58:33.525Z,89.80
